Gardendale, Alabama
Current Conditions -  °F | °C
As of 6:53 AM on Friday 28 Nov 2014 (Local Time) from KBHM Reporting Station
Clear Clear  
Wind Chill: 27°   Ceiling: Unl
Heat Index: 27°   Visibility: 8mi
Dew Point: 23°   Wind: 3mph
Humidity: 85%   Direction: 20°NNE
Pressure: 30.47"   Gusts: NA
Location:  33.65°N, 86.81°W
Report Text: KBHM 281253Z 02003KT 8SM CLR M03/M05 A3047 RMK AO2 SLP323 T10281050
Loading
Personal Weather Stations






























Interactive Weather Map New forecast layout! Learn more

10-Day Weather Forecast

Advertisements
Track Severe Weather on mobile